createdAt,value
2023-04-09T00:01:11.920Z,4.44
2023-04-09T00:03:40.662Z,4.40
2023-04-09T00:06:08.808Z,4.39
2023-04-09T00:08:36.651Z,4.41
2023-04-09T00:11:05.728Z,4.42
2023-04-09T00:13:39.191Z,4.42
2023-04-09T00:16:09.491Z,4.41
2023-04-09T00:18:37.506Z,4.38
2023-04-09T00:21:05.750Z,4.35
2023-04-09T00:23:34.480Z,4.32
2023-04-09T00:26:02.329Z,4.31
2023-04-09T00:28:30.647Z,4.29
2023-04-09T00:30:58.682Z,4.26
2023-04-09T00:33:26.642Z,4.22
2023-04-09T00:35:54.590Z,4.18
2023-04-09T00:38:22.644Z,4.16
2023-04-09T00:40:51.356Z,4.14
2023-04-09T00:43:19.330Z,4.13
2023-04-09T00:45:47.631Z,4.12
2023-04-09T00:48:16.417Z,4.11
2023-04-09T00:50:44.568Z,4.11
2023-04-09T00:53:14.359Z,4.12
2023-04-09T00:55:42.378Z,4.10
2023-04-09T00:58:10.282Z,4.09
2023-04-09T01:00:38.273Z,4.09
2023-04-09T01:03:07.633Z,4.09
2023-04-09T01:06:02.231Z,4.11
2023-04-09T01:08:33.100Z,4.12
2023-04-09T01:11:14.123Z,4.14
2023-04-09T01:14:00.592Z,4.12
2023-04-09T01:16:32.818Z,4.10
2023-04-09T01:19:22.986Z,4.09
2023-04-09T01:21:52.709Z,4.10
2023-04-09T01:24:59.901Z,4.10
2023-04-09T01:27:47.159Z,4.08
2023-04-09T01:30:17.292Z,4.09
2023-04-09T01:32:45.948Z,4.09
2023-04-09T01:35:14.409Z,4.10
2023-04-09T01:37:42.984Z,4.10
2023-04-09T01:40:11.366Z,4.11
2023-04-09T01:42:41.164Z,4.12
2023-04-09T01:45:11.844Z,4.12
2023-04-09T01:47:40.755Z,4.11
2023-04-09T01:50:09.222Z,4.09
2023-04-09T01:52:37.378Z,4.09
2023-04-09T01:55:05.741Z,4.09
2023-04-09T01:57:33.654Z,4.08
2023-04-09T02:00:01.609Z,4.08
2023-04-09T02:02:42.966Z,4.07
2023-04-09T02:05:15.466Z,4.06
2023-04-09T02:07:47.500Z,4.05
2023-04-09T02:10:17.414Z,4.03
2023-04-09T02:12:50.029Z,4.00
2023-04-09T02:15:20.420Z,3.98
2023-04-09T02:17:48.454Z,3.97
2023-04-09T02:20:20.056Z,3.95
2023-04-09T02:22:48.470Z,3.94
2023-04-09T02:25:16.475Z,3.92
2023-04-09T02:27:44.335Z,3.90
2023-04-09T02:30:12.349Z,3.88
2023-04-09T02:32:40.413Z,3.89
2023-04-09T02:35:08.413Z,3.89
2023-04-09T02:37:36.412Z,3.90
2023-04-09T02:40:04.600Z,3.89
2023-04-09T02:42:32.606Z,3.89
2023-04-09T02:45:00.502Z,3.89
2023-04-09T02:47:30.579Z,3.87
2023-04-09T02:49:58.589Z,3.85
2023-04-09T02:52:26.392Z,3.85
2023-04-09T02:54:54.417Z,3.85
2023-04-09T02:57:22.416Z,3.85
2023-04-09T02:59:50.347Z,3.83
2023-04-09T03:02:18.289Z,3.82
2023-04-09T03:04:46.334Z,3.82
2023-04-09T03:07:14.216Z,3.82
2023-04-09T03:09:42.116Z,3.83
2023-04-09T03:12:10.140Z,3.84
2023-04-09T03:14:37.968Z,3.85
2023-04-09T03:17:05.978Z,3.85
2023-04-09T03:19:34.021Z,3.86
2023-04-09T03:22:02.473Z,3.89
2023-04-09T03:24:32.264Z,3.94
2023-04-09T03:27:00.389Z,3.99
2023-04-09T03:29:28.237Z,4.03
2023-04-09T03:31:56.143Z,4.07
2023-04-09T03:34:24.695Z,4.09
2023-04-09T03:36:52.846Z,4.08
2023-04-09T03:39:20.747Z,4.05
2023-04-09T03:41:48.909Z,4.01
2023-04-09T03:44:17.046Z,4.02
2023-04-09T03:46:45.591Z,4.05
2023-04-09T03:49:13.557Z,4.09
2023-04-09T03:51:41.619Z,4.12
2023-04-09T03:54:09.516Z,4.12
2023-04-09T03:56:37.393Z,4.11
2023-04-09T03:59:05.496Z,4.06
2023-04-09T04:01:33.506Z,4.00
2023-04-09T04:04:01.822Z,3.97
2023-04-09T04:06:30.066Z,3.94
2023-04-09T04:08:57.988Z,3.92
2023-04-09T04:11:25.967Z,3.91
2023-04-09T04:13:55.856Z,3.92
2023-04-09T04:16:24.321Z,3.92
2023-04-09T04:18:52.408Z,3.91
2023-04-09T04:21:20.426Z,3.91
2023-04-09T04:23:48.314Z,3.90
2023-04-09T04:26:16.237Z,3.90
2023-04-09T04:28:44.374Z,3.94
2023-04-09T04:31:13.176Z,3.97
2023-04-09T04:33:42.464Z,4.00
2023-04-09T04:36:14.516Z,4.02
2023-04-09T04:38:42.694Z,4.03
2023-04-09T04:41:11.540Z,4.05
2023-04-09T04:43:41.485Z,4.07
2023-04-09T04:46:09.465Z,4.08
2023-04-09T04:48:37.812Z,4.09
2023-04-09T04:51:05.828Z,4.10
2023-04-09T04:53:33.711Z,4.11
2023-04-09T04:56:01.699Z,4.13
2023-04-09T04:58:30.636Z,4.16
2023-04-09T05:00:58.746Z,4.18
2023-04-09T05:03:27.705Z,4.20
2023-04-09T05:05:56.212Z,4.23
2023-04-09T05:08:24.151Z,4.23
2023-04-09T05:10:52.112Z,4.24
2023-04-09T05:13:19.968Z,4.23
2023-04-09T05:15:47.961Z,4.24
2023-04-09T05:18:15.968Z,4.26
2023-04-09T05:20:43.865Z,4.29
2023-04-09T05:23:12.766Z,4.31
2023-04-09T05:25:41.028Z,4.32
2023-04-09T05:28:11.251Z,4.31
2023-04-09T05:30:39.348Z,4.31
2023-04-09T05:33:07.367Z,4.32
2023-04-09T05:35:39.338Z,4.34
2023-04-09T05:38:07.289Z,4.35
2023-04-09T05:40:35.551Z,4.37
2023-04-09T05:43:03.498Z,4.39
2023-04-09T05:45:31.492Z,4.37
2023-04-09T05:47:59.418Z,4.35
2023-04-09T05:50:27.530Z,4.35
2023-04-09T05:52:55.990Z,4.37
2023-04-09T05:55:23.845Z,4.40
2023-04-09T05:57:54.671Z,4.40
2023-04-09T06:00:22.548Z,4.37
2023-04-09T06:02:50.950Z,4.37
2023-04-09T06:05:18.869Z,4.39
2023-04-09T06:07:46.826Z,4.39
2023-04-09T06:10:14.680Z,4.44
2023-04-09T06:12:42.521Z,4.49
2023-04-09T06:15:11.022Z,4.57
2023-04-09T06:17:39.112Z,4.65
2023-04-09T06:20:07.782Z,4.74
2023-04-09T06:22:35.818Z,4.83
2023-04-09T06:25:04.285Z,4.91
2023-04-09T06:27:32.279Z,4.99
2023-04-09T06:30:00.376Z,5.06
2023-04-09T06:32:28.313Z,5.14
2023-04-09T06:34:56.320Z,5.20
2023-04-09T06:37:24.651Z,5.26
2023-04-09T06:40:00.497Z,5.34
2023-04-09T06:42:29.076Z,5.42
2023-04-09T06:44:57.204Z,5.50
2023-04-09T06:47:25.613Z,5.57
2023-04-09T06:49:53.575Z,5.62
2023-04-09T06:52:21.518Z,5.66
2023-04-09T06:54:49.393Z,5.72
2023-04-09T06:57:17.361Z,5.76
2023-04-09T06:59:45.761Z,5.78
2023-04-09T07:02:13.981Z,5.85
2023-04-09T07:04:42.215Z,5.94
2023-04-09T07:07:10.668Z,5.99
2023-04-09T07:09:38.639Z,6.05
2023-04-09T07:12:06.557Z,6.14
2023-04-09T07:14:34.452Z,6.25
2023-04-09T07:17:02.493Z,6.35
2023-04-09T07:19:30.994Z,6.48
2023-04-09T07:21:58.848Z,6.55
2023-04-09T07:24:26.925Z,6.66
2023-04-09T07:26:54.731Z,6.83
2023-04-09T07:29:22.662Z,7.02
2023-04-09T07:31:51.052Z,7.16
2023-04-09T07:34:19.033Z,7.26
2023-04-09T07:36:46.862Z,7.40
2023-04-09T07:39:14.673Z,7.49
2023-04-09T07:41:42.664Z,7.59
2023-04-09T07:44:10.501Z,7.71
2023-04-09T07:46:40.016Z,7.74
2023-04-09T07:49:07.961Z,7.82
2023-04-09T07:51:35.918Z,7.94
2023-04-09T07:54:03.798Z,8.14
2023-04-09T07:56:31.694Z,8.28
2023-04-09T07:58:59.544Z,8.35
2023-04-09T08:01:27.667Z,8.43
2023-04-09T08:03:55.724Z,8.52
2023-04-09T08:06:23.765Z,8.67
2023-04-09T08:08:51.926Z,8.85
2023-04-09T08:11:25.262Z,9.02
2023-04-09T08:13:53.265Z,9.18
2023-04-09T08:16:21.464Z,9.31
2023-04-09T08:18:51.375Z,9.43
2023-04-09T08:21:20.101Z,9.58
2023-04-09T08:23:48.195Z,9.62
2023-04-09T08:26:16.066Z,9.69
2023-04-09T08:28:44.005Z,9.83
2023-04-09T08:31:11.866Z,9.92
2023-04-09T08:33:39.697Z,9.94
2023-04-09T08:36:11.949Z,10.01
2023-04-09T08:38:40.766Z,10.16
2023-04-09T08:41:17.176Z,10.37
2023-04-09T08:46:21.917Z,10.70
2023-04-09T08:48:51.937Z,10.71
2023-04-09T08:51:22.733Z,10.80
2023-04-09T08:53:58.340Z,10.93
2023-04-09T08:56:26.733Z,10.95
2023-04-09T08:58:56.307Z,10.93
2023-04-09T09:01:31.902Z,11.00
2023-04-09T09:04:08.340Z,11.06
2023-04-09T09:06:38.713Z,11.12
2023-04-09T09:09:07.754Z,11.23
2023-04-09T09:11:38.017Z,11.42
2023-04-09T09:14:08.661Z,11.60
2023-04-09T09:16:45.349Z,11.76
2023-04-09T09:19:25.632Z,11.79
2023-04-09T09:22:01.846Z,11.69
2023-04-09T09:24:31.053Z,11.58
2023-04-09T09:26:59.237Z,11.53
2023-04-09T09:29:28.224Z,11.63
2023-04-09T09:31:56.641Z,11.74
2023-04-09T09:34:26.251Z,11.78
2023-04-09T09:36:54.552Z,11.80
2023-04-09T09:39:22.750Z,11.81
2023-04-09T09:42:09.660Z,11.83
2023-04-09T09:44:37.523Z,11.84
2023-04-09T09:47:06.392Z,11.79
2023-04-09T09:49:37.990Z,11.73
2023-04-09T09:52:11.567Z,11.63
2023-04-09T09:54:43.973Z,11.49
2023-04-09T09:57:14.644Z,11.38
2023-04-09T09:59:50.981Z,11.32
2023-04-09T10:02:20.682Z,11.31
2023-04-09T10:04:52.825Z,11.31
2023-04-09T10:07:22.441Z,11.30
2023-04-09T10:09:52.031Z,11.29
2023-04-09T10:12:25.786Z,11.28
2023-04-09T10:14:56.305Z,11.27
2023-04-09T10:17:24.194Z,11.24
2023-04-09T10:20:22.160Z,11.23
2023-04-09T10:22:51.838Z,11.31
2023-04-09T10:25:20.712Z,11.40
2023-04-09T10:28:16.601Z,11.51
2023-04-09T10:30:44.815Z,11.79
2023-04-09T10:33:17.166Z,12.04
2023-04-09T10:35:47.249Z,12.11
2023-04-09T10:38:15.553Z,12.14
2023-04-09T10:40:51.035Z,12.18
2023-04-09T10:43:21.124Z,12.21
2023-04-09T10:45:53.581Z,12.19
2023-04-09T10:48:26.711Z,12.23
2023-04-09T10:50:55.474Z,12.33
2023-04-09T10:53:24.870Z,12.39
2023-04-09T10:55:54.358Z,12.39
2023-04-09T10:58:22.225Z,12.32
2023-04-09T11:00:51.488Z,12.30
2023-04-09T11:03:25.312Z,12.29
2023-04-09T11:06:11.845Z,12.27
2023-04-09T11:08:41.667Z,12.25
2023-04-09T11:11:09.683Z,12.19
2023-04-09T11:13:37.592Z,12.12
2023-04-09T11:16:07.338Z,12.06
2023-04-09T11:18:37.132Z,12.02
2023-04-09T11:21:05.286Z,12.06
2023-04-09T11:23:33.980Z,12.06
2023-04-09T11:26:02.525Z,12.06
2023-04-09T11:28:30.473Z,12.07
2023-04-09T11:30:58.324Z,12.09
2023-04-09T11:33:33.254Z,12.12
2023-04-09T11:36:01.824Z,12.15
2023-04-09T11:38:31.832Z,12.18
2023-04-09T11:40:59.759Z,12.22
2023-04-09T11:43:27.814Z,12.23
2023-04-09T11:45:57.512Z,12.19
2023-04-09T11:48:26.067Z,12.18
2023-04-09T11:50:54.314Z,12.18
2023-04-09T11:53:23.756Z,12.16
2023-04-09T11:55:53.321Z,12.18
2023-04-09T11:58:26.376Z,12.19
2023-04-09T12:00:56.420Z,12.13
2023-04-09T12:03:33.170Z,12.10
2023-04-09T12:06:03.042Z,12.08
2023-04-09T12:08:31.845Z,12.07
2023-04-09T12:11:09.375Z,12.08
2023-04-09T12:13:37.360Z,12.11
2023-04-09T12:16:05.736Z,12.16
2023-04-09T12:18:36.793Z,12.21
2023-04-09T12:21:05.801Z,12.26
2023-04-09T12:23:33.657Z,12.28
2023-04-09T12:26:02.364Z,12.25
2023-04-09T12:28:30.901Z,12.26
2023-04-09T12:30:59.657Z,12.28
2023-04-09T12:33:27.608Z,12.32
2023-04-09T12:35:58.383Z,12.34
2023-04-09T12:38:26.911Z,12.37
2023-04-09T12:40:54.932Z,12.45
2023-04-09T12:43:22.900Z,12.53
2023-04-09T12:45:52.871Z,12.63
2023-04-09T12:48:20.981Z,12.74
2023-04-09T12:50:48.882Z,12.83
2023-04-09T12:53:16.825Z,12.90
2023-04-09T12:55:44.729Z,13.00
2023-04-09T12:58:12.672Z,13.12
2023-04-09T13:00:40.809Z,13.30
2023-04-09T13:03:09.270Z,13.51
2023-04-09T13:05:37.344Z,13.73
2023-04-09T13:08:05.288Z,13.85
2023-04-09T13:10:33.380Z,13.86
2023-04-09T13:13:01.534Z,13.88
2023-04-09T13:15:29.580Z,13.81
2023-04-09T13:17:57.637Z,13.78
2023-04-09T13:20:25.632Z,13.78
2023-04-09T13:22:53.500Z,13.77
2023-04-09T13:25:21.504Z,13.76
2023-04-09T13:27:49.445Z,13.71
2023-04-09T13:30:17.424Z,13.62
2023-04-09T13:32:45.893Z,13.54
2023-04-09T13:35:14.096Z,13.49
2023-04-09T13:37:42.254Z,13.43
2023-04-09T13:40:10.681Z,13.30
2023-04-09T13:42:38.604Z,13.15
2023-04-09T13:45:07.143Z,13.02
2023-04-09T13:47:35.159Z,12.91
2023-04-09T13:50:03.200Z,12.78
2023-04-09T13:52:32.855Z,12.68
2023-04-09T13:55:00.824Z,12.60
2023-04-09T13:57:28.680Z,12.55
2023-04-09T13:59:56.596Z,12.49
2023-04-09T14:02:24.929Z,12.44
2023-04-09T14:04:53.107Z,12.37
2023-04-09T14:07:21.132Z,12.35
2023-04-09T14:09:50.797Z,12.32
2023-04-09T14:12:18.786Z,12.28
2023-04-09T14:14:46.645Z,12.23
2023-04-09T14:17:14.620Z,12.15
2023-04-09T14:19:42.559Z,12.11
2023-04-09T14:22:11.607Z,12.08
2023-04-09T14:24:42.200Z,12.06
2023-04-09T14:27:10.323Z,12.04
2023-04-09T14:29:38.193Z,12.04
2023-04-09T14:32:06.281Z,12.04
2023-04-09T14:34:34.295Z,12.06
2023-04-09T14:37:02.903Z,12.06
2023-04-09T14:39:30.835Z,12.07
2023-04-09T14:41:58.627Z,12.04
2023-04-09T14:44:27.301Z,12.02
2023-04-09T14:46:56.912Z,11.99
2023-04-09T14:49:25.257Z,11.96
2023-04-09T14:51:53.141Z,11.96
2023-04-09T14:54:21.349Z,11.96
2023-04-09T14:56:49.245Z,11.90
2023-04-09T14:59:17.106Z,11.84
2023-04-09T15:01:45.265Z,11.85
2023-04-09T15:04:13.353Z,11.89
2023-04-09T15:06:41.333Z,11.97
2023-04-09T15:09:09.312Z,12.03
2023-04-09T15:11:37.166Z,12.07
2023-04-09T15:14:04.948Z,12.09
2023-04-09T15:16:37.428Z,12.10
2023-04-09T15:19:05.616Z,12.11
2023-04-09T15:21:33.492Z,12.11
2023-04-09T15:24:01.550Z,12.10
2023-04-09T15:26:29.458Z,12.08
2023-04-09T15:29:07.917Z,12.06
2023-04-09T15:31:36.399Z,12.02
2023-04-09T15:34:05.220Z,11.99
2023-04-09T15:36:33.116Z,11.97
2023-04-09T15:39:05.077Z,11.92
2023-04-09T15:41:33.962Z,11.85
2023-04-09T15:44:01.806Z,11.80
2023-04-09T15:46:29.756Z,11.76
2023-04-09T15:48:57.627Z,11.72
2023-04-09T15:51:27.070Z,11.72
2023-04-09T15:53:55.452Z,11.72
2023-04-09T15:56:23.786Z,11.69
2023-04-09T15:58:51.802Z,11.63
2023-04-09T16:01:20.133Z,11.57
2023-04-09T16:03:52.130Z,11.50
2023-04-09T16:06:20.235Z,11.43
2023-04-09T16:08:48.225Z,11.37
2023-04-09T16:11:17.474Z,11.32
2023-04-09T16:13:46.286Z,11.27
2023-04-09T16:16:14.278Z,11.21
2023-04-09T16:18:42.280Z,11.14
2023-04-09T16:21:10.127Z,11.08
2023-04-09T16:23:38.652Z,11.01
2023-04-09T16:26:07.120Z,10.95
2023-04-09T16:28:35.118Z,10.87
2023-04-09T16:31:03.212Z,10.79
2023-04-09T16:33:31.254Z,10.70
2023-04-09T16:35:59.580Z,10.62
2023-04-09T16:38:29.257Z,10.52
2023-04-09T16:40:57.230Z,10.42
2023-04-09T16:43:25.883Z,10.30
2023-04-09T16:45:53.881Z,10.20
2023-04-09T16:48:21.898Z,10.10
2023-04-09T16:50:49.786Z,10.00
2023-04-09T16:53:17.834Z,9.91
2023-04-09T16:55:45.843Z,9.82
2023-04-09T16:58:13.701Z,9.72
2023-04-09T17:00:42.068Z,9.62
2023-04-09T17:03:10.330Z,9.52
2023-04-09T17:05:38.468Z,9.43
2023-04-09T17:08:06.873Z,9.34
2023-04-09T17:10:36.888Z,9.25
2023-04-09T17:13:04.833Z,9.16
2023-04-09T17:15:32.636Z,9.09
2023-04-09T17:18:01.609Z,9.01
2023-04-09T17:20:30.121Z,8.94
2023-04-09T17:22:57.982Z,8.87
2023-04-09T17:25:26.034Z,8.81
2023-04-09T17:27:54.580Z,8.76
2023-04-09T17:30:22.491Z,8.68
2023-04-09T17:32:51.338Z,8.57
2023-04-09T17:35:19.296Z,8.48
2023-04-09T17:37:47.282Z,8.40
2023-04-09T17:40:17.521Z,8.33
2023-04-09T17:42:46.497Z,8.29
2023-04-09T17:45:15.005Z,8.27
2023-04-09T17:47:42.919Z,8.26
2023-04-09T17:50:11.359Z,8.24
2023-04-09T17:52:40.676Z,8.23
2023-04-09T17:55:12.441Z,8.22
2023-04-09T17:57:41.916Z,8.21
2023-04-09T18:00:11.140Z,8.19
2023-04-09T18:02:39.593Z,8.15
2023-04-09T18:05:08.472Z,8.13
2023-04-09T18:07:36.803Z,8.12
2023-04-09T18:10:05.587Z,8.12
2023-04-09T18:12:33.547Z,8.12
2023-04-09T18:15:01.598Z,8.13
2023-04-09T18:17:29.672Z,8.12
2023-04-09T18:19:58.465Z,8.12
2023-04-09T18:22:27.670Z,8.11
2023-04-09T18:24:55.875Z,8.09
2023-04-09T18:27:23.770Z,8.06
2023-04-09T18:29:51.777Z,8.03
2023-04-09T18:32:19.945Z,8.00
2023-04-09T18:34:49.681Z,7.97
2023-04-09T18:37:18.385Z,7.95
2023-04-09T18:39:46.859Z,7.93
2023-04-09T18:42:14.738Z,7.91
2023-04-09T18:44:42.828Z,7.89
2023-04-09T18:47:11.230Z,7.87
2023-04-09T18:49:39.170Z,7.85
2023-04-09T18:52:13.198Z,7.84
2023-04-09T18:54:41.078Z,7.84
2023-04-09T18:57:09.025Z,7.84
2023-04-09T18:59:37.394Z,7.84
2023-04-09T19:02:06.019Z,7.85
2023-04-09T19:04:36.587Z,7.85
2023-04-09T19:07:05.314Z,7.83
2023-04-09T19:09:33.722Z,7.81
2023-04-09T19:12:02.288Z,7.77
2023-04-09T19:14:30.487Z,7.72
2023-04-09T19:16:59.653Z,7.68
2023-04-09T19:19:29.170Z,7.63
2023-04-09T19:21:58.518Z,7.59
2023-04-09T19:24:26.489Z,7.55
2023-04-09T19:26:55.103Z,7.50
2023-04-09T19:29:22.995Z,7.46
2023-04-09T19:31:51.204Z,7.43
2023-04-09T19:34:19.126Z,7.39
2023-04-09T19:36:46.884Z,7.34
2023-04-09T19:39:15.503Z,7.30
2023-04-09T19:41:46.078Z,7.27
2023-04-09T19:44:14.048Z,7.24
2023-04-09T19:46:41.894Z,7.21
2023-04-09T19:49:09.773Z,7.18
2023-04-09T19:51:38.887Z,7.14
2023-04-09T19:54:06.994Z,7.10
2023-04-09T19:56:35.071Z,7.07
2023-04-09T19:59:03.011Z,7.04
2023-04-09T20:01:31.047Z,7.04
2023-04-09T20:03:59.884Z,7.04
2023-04-09T20:06:28.970Z,7.03
2023-04-09T20:08:56.948Z,7.02
2023-04-09T20:11:24.900Z,7.00
2023-04-09T20:13:52.867Z,6.96
2023-04-09T20:16:20.782Z,6.91
2023-04-09T20:18:48.761Z,6.84
2023-04-09T20:21:16.697Z,6.77
2023-04-09T20:23:45.587Z,6.69
2023-04-09T20:26:13.848Z,6.64
2023-04-09T20:28:42.095Z,6.60
2023-04-09T20:31:10.047Z,6.58
2023-04-09T20:33:37.979Z,6.55
2023-04-09T20:36:17.285Z,6.53
2023-04-09T20:38:45.501Z,6.52
2023-04-09T20:41:13.645Z,6.53
2023-04-09T20:43:41.560Z,6.54
2023-04-09T20:46:09.731Z,6.55
2023-04-09T20:48:38.101Z,6.56
2023-04-09T20:51:10.780Z,6.54
2023-04-09T20:53:39.153Z,6.52
2023-04-09T20:56:08.581Z,6.52
2023-04-09T20:58:36.831Z,6.50
2023-04-09T21:01:07.407Z,6.49
2023-04-09T21:03:36.742Z,6.47
2023-04-09T21:06:05.421Z,6.44
2023-04-09T21:08:33.226Z,6.41
2023-04-09T21:11:02.252Z,6.38
2023-04-09T21:13:33.719Z,6.37
2023-04-09T21:16:08.595Z,6.37
2023-04-09T21:18:36.563Z,6.36
2023-04-09T21:21:07.992Z,6.34
2023-04-09T21:23:35.929Z,6.31
2023-04-09T21:26:05.010Z,6.28
2023-04-09T21:28:33.130Z,6.26
2023-04-09T21:31:00.993Z,6.24
2023-04-09T21:33:30.194Z,6.22
2023-04-09T21:35:58.424Z,6.21
2023-04-09T21:38:26.403Z,6.20
2023-04-09T21:40:54.287Z,6.20
2023-04-09T21:43:22.201Z,6.21
2023-04-09T21:45:50.732Z,6.23
2023-04-09T21:48:18.581Z,6.24
2023-04-09T21:50:46.500Z,6.25
2023-04-09T21:53:15.656Z,6.26
2023-04-09T21:55:43.552Z,6.27
2023-04-09T21:58:12.142Z,6.27
2023-04-09T22:00:40.123Z,6.25
2023-04-09T22:03:08.259Z,6.25
2023-04-09T22:05:36.590Z,6.25
2023-04-09T22:08:04.455Z,6.25
2023-04-09T22:10:32.385Z,6.25
2023-04-09T22:13:00.281Z,6.26
2023-04-09T22:15:28.345Z,6.27
2023-04-09T22:17:56.312Z,6.28
2023-04-09T22:20:26.226Z,6.28
2023-04-09T22:22:54.755Z,6.29
2023-04-09T22:25:22.733Z,6.29
2023-04-09T22:27:53.310Z,6.28
2023-04-09T22:30:22.004Z,6.27
2023-04-09T22:32:51.526Z,6.25
2023-04-09T22:35:19.564Z,6.24
2023-04-09T22:37:47.548Z,6.23
2023-04-09T22:40:16.025Z,6.23
2023-04-09T22:42:46.681Z,6.25
2023-04-09T22:45:14.679Z,6.25
2023-04-09T22:47:42.542Z,6.27
2023-04-09T22:50:11.211Z,6.27
2023-04-09T22:52:39.082Z,6.28
2023-04-09T22:55:10.128Z,6.28
2023-04-09T22:57:38.450Z,6.27
2023-04-09T23:00:08.506Z,6.26
2023-04-09T23:02:37.055Z,6.22
2023-04-09T23:05:05.840Z,6.17
2023-04-09T23:07:34.083Z,6.13
2023-04-09T23:10:02.071Z,6.11
2023-04-09T23:12:29.861Z,6.08
2023-04-09T23:14:57.767Z,6.06
2023-04-09T23:17:27.890Z,6.05
2023-04-09T23:19:55.804Z,6.03
2023-04-09T23:22:24.392Z,6.00
2023-04-09T23:24:52.218Z,5.98
2023-04-09T23:27:20.327Z,5.94
2023-04-09T23:29:48.317Z,5.89
2023-04-09T23:32:16.325Z,5.84
2023-04-09T23:34:44.140Z,5.79
2023-04-09T23:37:12.110Z,5.74
2023-04-09T23:39:41.262Z,5.71
2023-04-09T23:42:09.206Z,5.69
2023-04-09T23:44:37.164Z,5.67
2023-04-09T23:47:06.588Z,5.65
2023-04-09T23:49:34.454Z,5.63
2023-04-09T23:52:02.283Z,5.61
2023-04-09T23:54:30.798Z,5.60
2023-04-09T23:56:59.705Z,5.57
2023-04-09T23:59:27.831Z,5.56
